sensor_id;sensor_type;location;lat;lon;timestamp;pressure;altitude;pressure_sealevel;temperature;humidity
67377;BME280;54261;46.086;6.588;2023-06-22T00:00:50;92618.94;;;19.92;40.23
67377;BME280;54261;46.086;6.588;2023-06-22T00:05:52;92613.53;;;20.41;39.47
67377;BME280;54261;46.086;6.588;2023-06-22T00:10:54;92610.00;;;19.95;40.10
67377;BME280;54261;46.086;6.588;2023-06-22T00:15:56;92606.91;;;20.42;38.69
67377;BME280;54261;46.086;6.588;2023-06-22T00:20:58;92596.78;;;19.56;40.41
67377;BME280;54261;46.086;6.588;2023-06-22T00:26:00;92598.63;;;19.17;40.25
67377;BME280;54261;46.086;6.588;2023-06-22T00:31:02;92551.09;;;18.77;41.54
67377;BME280;54261;46.086;6.588;2023-06-22T00:36:05;92550.22;;;19.30;41.08
67377;BME280;54261;46.086;6.588;2023-06-22T00:41:09;92554.63;;;19.08;40.78
67377;BME280;54261;46.086;6.588;2023-06-22T00:46:11;92550.19;;;20.06;39.93
67377;BME280;54261;46.086;6.588;2023-06-22T00:51:13;92475.22;;;18.65;41.45
67377;BME280;54261;46.086;6.588;2023-06-22T00:56:15;92509.19;;;19.46;40.87
67377;BME280;54261;46.086;6.588;2023-06-22T01:01:21;92524.13;;;19.26;40.08
67377;BME280;54261;46.086;6.588;2023-06-22T01:06:36;92528.84;;;19.29;40.12
67377;BME280;54261;46.086;6.588;2023-06-22T01:11:47;92509.88;;;19.74;39.68
67377;BME280;54261;46.086;6.588;2023-06-22T01:16:54;92532.56;;;19.51;39.64
67377;BME280;54261;46.086;6.588;2023-06-22T01:21:58;92502.69;;;20.00;38.74
67377;BME280;54261;46.086;6.588;2023-06-22T01:32:32;92494.78;;;19.08;40.85
67377;BME280;54261;46.086;6.588;2023-06-22T01:37:36;92488.63;;;19.11;40.71
67377;BME280;54261;46.086;6.588;2023-06-22T01:42:39;92480.31;;;19.35;39.85
67377;BME280;54261;46.086;6.588;2023-06-22T01:47:41;92485.00;;;18.69;41.44
67377;BME280;54261;46.086;6.588;2023-06-22T01:52:43;92504.03;;;19.00;41.07
67377;BME280;54261;46.086;6.588;2023-06-22T01:57:45;92472.16;;;18.97;41.13
67377;BME280;54261;46.086;6.588;2023-06-22T02:02:58;92496.56;;;19.27;40.14
67377;BME280;54261;46.086;6.588;2023-06-22T02:08:14;92487.91;;;18.26;42.24
67377;BME280;54261;46.086;6.588;2023-06-22T02:13:19;92465.88;;;18.93;41.13
67377;BME280;54261;46.086;6.588;2023-06-22T02:18:21;92436.09;;;18.69;40.54
67377;BME280;54261;46.086;6.588;2023-06-22T02:23:23;92408.94;;;18.12;41.85
67377;BME280;54261;46.086;6.588;2023-06-22T02:28:25;92425.28;;;18.15;41.62
67377;BME280;54261;46.086;6.588;2023-06-22T02:33:27;92445.94;;;18.20;41.84
67377;BME280;54261;46.086;6.588;2023-06-22T02:38:29;92439.31;;;18.79;41.17
67377;BME280;54261;46.086;6.588;2023-06-22T02:43:36;92421.41;;;19.12;39.74
67377;BME280;54261;46.086;6.588;2023-06-22T02:48:38;92447.81;;;18.77;40.94
67377;BME280;54261;46.086;6.588;2023-06-22T02:53:40;92435.03;;;19.12;39.74
67377;BME280;54261;46.086;6.588;2023-06-22T02:58:48;92443.53;;;18.42;40.79
67377;BME280;54261;46.086;6.588;2023-06-22T03:03:50;92462.75;;;18.60;41.93
67377;BME280;54261;46.086;6.588;2023-06-22T03:08:52;92454.44;;;18.45;41.49
67377;BME280;54261;46.086;6.588;2023-06-22T03:13:54;92448.50;;;18.36;41.97
67377;BME280;54261;46.086;6.588;2023-06-22T03:18:56;92449.16;;;19.28;40.30
67377;BME280;54261;46.086;6.588;2023-06-22T03:23:58;92483.31;;;18.57;40.93
67377;BME280;54261;46.086;6.588;2023-06-22T03:29:00;92459.03;;;17.87;42.07
67377;BME280;54261;46.086;6.588;2023-06-22T03:34:03;92461.19;;;19.27;40.58
67377;BME280;54261;46.086;6.588;2023-06-22T03:39:05;92453.34;;;18.23;41.83
67377;BME280;54261;46.086;6.588;2023-06-22T03:44:07;92410.03;;;19.40;40.18
67377;BME280;54261;46.086;6.588;2023-06-22T03:49:13;92432.09;;;18.90;40.25
67377;BME280;54261;46.086;6.588;2023-06-22T03:54:15;92408.28;;;17.41;42.69
67377;BME280;54261;46.086;6.588;2023-06-22T03:59:17;92439.09;;;18.91;41.08
67377;BME280;54261;46.086;6.588;2023-06-22T04:04:19;92432.47;;;18.58;41.77
67377;BME280;54261;46.086;6.588;2023-06-22T04:09:21;92462.63;;;18.49;41.66
67377;BME280;54261;46.086;6.588;2023-06-22T04:14:23;92456.25;;;18.38;41.75
67377;BME280;54261;46.086;6.588;2023-06-22T04:19:25;92479.69;;;18.80;41.05
67377;BME280;54261;46.086;6.588;2023-06-22T04:24:27;92517.44;;;18.55;42.31
67377;BME280;54261;46.086;6.588;2023-06-22T04:29:29;92502.13;;;18.73;41.41
67377;BME280;54261;46.086;6.588;2023-06-22T04:34:31;92548.00;;;20.19;39.91
67377;BME280;54261;46.086;6.588;2023-06-22T04:39:33;92537.97;;;19.89;39.29
67377;BME280;54261;46.086;6.588;2023-06-22T04:44:35;92592.91;;;19.57;40.66
67377;BME280;54261;46.086;6.588;2023-06-22T04:49:37;92633.19;;;15.50;50.34
67377;BME280;54261;46.086;6.588;2023-06-22T04:54:40;92683.97;;;17.49;45.34
67377;BME280;54261;46.086;6.588;2023-06-22T04:59:49;92716.81;;;16.76;47.36
67377;BME280;54261;46.086;6.588;2023-06-22T05:04:50;92734.16;;;14.42;54.47
67377;BME280;54261;46.086;6.588;2023-06-22T05:09:53;92727.09;;;17.03;46.63
67377;BME280;54261;46.086;6.588;2023-06-22T05:14:56;92807.50;;;14.44;55.38
67377;BME280;54261;46.086;6.588;2023-06-22T05:19:57;92792.97;;;17.39;46.52
67377;BME280;54261;46.086;6.588;2023-06-22T05:24:59;92799.91;;;17.72;45.32
67377;BME280;54261;46.086;6.588;2023-06-22T05:30:01;92802.13;;;19.39;43.79
67377;BME280;54261;46.086;6.588;2023-06-22T10:22:20;92644.03;;;26.25;30.91
67377;BME280;54261;46.086;6.588;2023-06-22T10:27:21;92643.69;;;26.98;30.56
67377;BME280;54261;46.086;6.588;2023-06-22T10:32:23;92645.25;;;25.19;31.75
67377;BME280;54261;46.086;6.588;2023-06-22T10:37:25;92661.94;;;24.94;33.55
67377;BME280;54261;46.086;6.588;2023-06-22T10:42:27;92677.44;;;25.15;33.98
67377;BME280;54261;46.086;6.588;2023-06-22T15:40:07;93009.91;;;11.42;67.10
67377;BME280;54261;46.086;6.588;2023-06-22T15:45:09;93048.00;;;13.05;63.33
67377;BME280;54261;46.086;6.588;2023-06-22T15:50:11;93081.97;;;14.10;58.60
67377;BME280;54261;46.086;6.588;2023-06-22T15:55:14;93074.88;;;14.05;59.31
67377;BME280;54261;46.086;6.588;2023-06-22T16:00:17;93071.78;;;14.16;56.98
67377;BME280;54261;46.086;6.588;2023-06-22T16:05:19;93060.91;;;15.18;57.05
67377;BME280;54261;46.086;6.588;2023-06-22T16:10:21;93049.94;;;14.60;57.06
67377;BME280;54261;46.086;6.588;2023-06-22T16:15:23;93056.06;;;14.69;57.55
67377;BME280;54261;46.086;6.588;2023-06-22T16:20:25;93023.69;;;11.50;63.46
67377;BME280;54261;46.086;6.588;2023-06-22T16:25:27;93047.69;;;13.63;58.25
67377;BME280;54261;46.086;6.588;2023-06-22T16:30:28;93061.41;;;13.49;59.19
67377;BME280;54261;46.086;6.588;2023-06-22T16:35:31;93036.97;;;13.45;58.16
67377;BME280;54261;46.086;6.588;2023-06-22T16:40:38;93011.25;;;12.47;61.91
67377;BME280;54261;46.086;6.588;2023-06-22T16:45:40;93002.09;;;13.49;57.68
67377;BME280;54261;46.086;6.588;2023-06-22T16:50:42;93005.13;;;15.47;53.72
67377;BME280;54261;46.086;6.588;2023-06-22T16:55:47;93000.22;;;13.32;57.77
67377;BME280;54261;46.086;6.588;2023-06-22T17:00:56;92946.75;;;11.80;60.40
67377;BME280;54261;46.086;6.588;2023-06-22T17:05:59;92992.16;;;11.32;64.12
67377;BME280;54261;46.086;6.588;2023-06-22T17:11:02;92985.63;;;10.93;64.58
67377;BME280;54261;46.086;6.588;2023-06-22T17:16:05;92965.00;;;11.43;62.62
67377;BME280;54261;46.086;6.588;2023-06-22T17:21:11;92924.03;;;12.22;62.10
67377;BME280;54261;46.086;6.588;2023-06-22T17:26:14;92921.22;;;11.42;63.53
67377;BME280;54261;46.086;6.588;2023-06-22T17:31:18;92898.81;;;11.56;65.50
67377;BME280;54261;46.086;6.588;2023-06-22T17:36:20;92961.56;;;12.53;66.02
67377;BME280;54261;46.086;6.588;2023-06-22T17:41:22;92943.31;;;14.78;57.70
67377;BME280;54261;46.086;6.588;2023-06-22T17:46:24;92914.00;;;14.34;58.94
67377;BME280;54261;46.086;6.588;2023-06-22T17:51:29;92907.31;;;15.33;55.25
67377;BME280;54261;46.086;6.588;2023-06-22T17:56:31;92894.97;;;14.98;54.66
67377;BME280;54261;46.086;6.588;2023-06-22T18:01:37;92896.91;;;15.22;55.79
67377;BME280;54261;46.086;6.588;2023-06-22T18:06:42;92900.66;;;13.65;58.22
67377;BME280;54261;46.086;6.588;2023-06-22T18:11:46;92898.88;;;12.35;64.77
67377;BME280;54261;46.086;6.588;2023-06-22T18:16:50;92919.66;;;11.41;65.76
67377;BME280;54261;46.086;6.588;2023-06-22T18:21:52;92908.22;;;12.38;63.12
67377;BME280;54261;46.086;6.588;2023-06-22T18:26:55;92929.13;;;15.15;56.59
67377;BME280;54261;46.086;6.588;2023-06-22T18:31:58;92908.44;;;15.69;53.35
67377;BME280;54261;46.086;6.588;2023-06-22T18:37:03;92887.22;;;15.96;51.16
67377;BME280;54261;46.086;6.588;2023-06-22T18:42:10;92919.44;;;13.83;55.84
67377;BME280;54261;46.086;6.588;2023-06-22T18:47:12;92907.22;;;14.95;52.81
67377;BME280;54261;46.086;6.588;2023-06-22T18:52:16;92879.44;;;13.55;54.58
67377;BME280;54261;46.086;6.588;2023-06-22T18:57:24;92902.47;;;15.63;49.57
67377;BME280;54261;46.086;6.588;2023-06-22T19:12:56;92921.47;;;15.17;51.23
67377;BME280;54261;46.086;6.588;2023-06-22T19:18:24;92920.88;;;14.99;50.47
67377;BME280;54261;46.086;6.588;2023-06-22T19:23:29;92930.16;;;14.77;51.16
67377;BME280;54261;46.086;6.588;2023-06-22T19:28:32;92933.47;;;14.95;52.14
67377;BME280;54261;46.086;6.588;2023-06-22T19:33:34;92935.38;;;14.94;52.76
67377;BME280;54261;46.086;6.588;2023-06-22T19:38:38;92946.53;;;16.42;48.76
67377;BME280;54261;46.086;6.588;2023-06-22T19:43:42;92956.94;;;14.82;51.96
67377;BME280;54261;46.086;6.588;2023-06-22T19:48:44;92963.56;;;15.52;51.33
67377;BME280;54261;46.086;6.588;2023-06-22T19:53:47;92961.75;;;16.06;49.57
67377;BME280;54261;46.086;6.588;2023-06-22T19:58:49;92972.78;;;14.71;53.67
67377;BME280;54261;46.086;6.588;2023-06-22T20:03:55;92984.50;;;15.92;50.50
67377;BME280;54261;46.086;6.588;2023-06-22T20:08:58;93005.34;;;16.42;49.14
67377;BME280;54261;46.086;6.588;2023-06-22T20:14:01;93006.28;;;16.74;47.64
67377;BME280;54261;46.086;6.588;2023-06-22T20:19:08;93010.53;;;16.22;50.89
67377;BME280;54261;46.086;6.588;2023-06-22T20:24:12;93030.50;;;13.37;56.68
67377;BME280;54261;46.086;6.588;2023-06-22T20:29:24;93031.22;;;14.24;54.22
67377;BME280;54261;46.086;6.588;2023-06-22T20:34:41;93035.22;;;16.58;50.47
67377;BME280;54261;46.086;6.588;2023-06-22T20:39:46;93029.47;;;17.00;48.04
67377;BME280;54261;46.086;6.588;2023-06-22T20:44:50;93024.53;;;17.63;46.35
67377;BME280;54261;46.086;6.588;2023-06-22T20:49:53;93044.81;;;17.69;45.78
67377;BME280;54261;46.086;6.588;2023-06-22T20:54:58;93039.84;;;17.87;45.63
67377;BME280;54261;46.086;6.588;2023-06-22T21:00:03;93030.81;;;17.67;45.83
67377;BME280;54261;46.086;6.588;2023-06-22T21:05:07;93046.09;;;16.20;48.81
67377;BME280;54261;46.086;6.588;2023-06-22T21:10:09;93011.69;;;15.84;48.56
67377;BME280;54261;46.086;6.588;2023-06-22T21:15:11;93043.41;;;16.08;48.64
67377;BME280;54261;46.086;6.588;2023-06-22T21:20:13;93031.75;;;14.90;52.56
67377;BME280;54261;46.086;6.588;2023-06-22T21:25:15;93032.06;;;15.22;52.13
67377;BME280;54261;46.086;6.588;2023-06-22T21:30:17;93036.59;;;16.39;49.02
67377;BME280;54261;46.086;6.588;2023-06-22T21:35:19;93044.47;;;15.23;51.44
67377;BME280;54261;46.086;6.588;2023-06-22T21:40:20;93053.41;;;16.07;50.62
67377;BME280;54261;46.086;6.588;2023-06-22T21:45:23;93050.94;;;14.46;54.24
67377;BME280;54261;46.086;6.588;2023-06-22T21:50:25;93048.00;;;16.07;52.19
67377;BME280;54261;46.086;6.588;2023-06-22T21:55:27;93057.34;;;16.47;49.31
67377;BME280;54261;46.086;6.588;2023-06-22T22:00:30;93062.38;;;16.74;49.12
67377;BME280;54261;46.086;6.588;2023-06-22T22:05:32;93056.66;;;17.61;46.86
67377;BME280;54261;46.086;6.588;2023-06-22T22:10:34;93066.81;;;17.64;46.44
67377;BME280;54261;46.086;6.588;2023-06-22T22:15:38;93061.19;;;17.57;45.69
67377;BME280;54261;46.086;6.588;2023-06-22T22:20:40;93067.25;;;15.81;50.01
67377;BME280;54261;46.086;6.588;2023-06-22T22:25:42;93055.19;;;15.91;50.56
67377;BME280;54261;46.086;6.588;2023-06-22T22:30:43;93055.63;;;15.56;51.36
67377;BME280;54261;46.086;6.588;2023-06-22T22:35:46;93057.69;;;15.96;51.81
67377;BME280;54261;46.086;6.588;2023-06-22T22:40:48;93050.47;;;17.03;48.84
67377;BME280;54261;46.086;6.588;2023-06-22T22:45:49;93042.66;;;18.07;46.32
67377;BME280;54261;46.086;6.588;2023-06-22T22:50:51;93043.34;;;16.58;48.23
67377;BME280;54261;46.086;6.588;2023-06-22T22:55:54;93064.19;;;17.68;45.78
67377;BME280;54261;46.086;6.588;2023-06-22T23:00:56;93059.72;;;17.91;45.66
67377;BME280;54261;46.086;6.588;2023-06-22T23:05:58;93062.09;;;17.61;45.70
67377;BME280;54261;46.086;6.588;2023-06-22T23:11:00;93055.66;;;14.79;51.58
67377;BME280;54261;46.086;6.588;2023-06-22T23:16:02;93049.06;;;16.81;48.22
67377;BME280;54261;46.086;6.588;2023-06-22T23:21:04;93051.25;;;11.32;64.21
67377;BME280;54261;46.086;6.588;2023-06-22T23:26:06;93059.03;;;9.87;71.65
67377;BME280;54261;46.086;6.588;2023-06-22T23:31:09;93071.34;;;9.46;74.28
67377;BME280;54261;46.086;6.588;2023-06-22T23:36:11;93080.66;;;12.85;65.37
67377;BME280;54261;46.086;6.588;2023-06-22T23:41:13;93088.22;;;9.60;73.95
67377;BME280;54261;46.086;6.588;2023-06-22T23:46:14;93092.09;;;10.10;72.31
67377;BME280;54261;46.086;6.588;2023-06-22T23:51:17;93086.31;;;12.57;67.19
67377;BME280;54261;46.086;6.588;2023-06-22T23:56:18;93090.19;;;15.16;59.27
